Edison, Kansas
Current Conditions -  °F | °C
As of 7:52 AM on Thursday 30 Oct 2014 (Local Time) from KCNU Reporting Station
Broken Clouds Broken Clouds  
Wind Chill: 52°   Ceiling: 11000
Heat Index: 52°   Visibility: 10mi
Dew Point: 42°   Wind: 15mph
Humidity: 69%   Direction: 200°SSW
Pressure: 30.03"   Gusts: NA
Location:  37.5057°N, 94.9338°W
Report Text: KCNU 301252Z AUTO 20013KT 10SM BKN110 11/06 A3003 RMK AO2 SLP168 T01110056
Loading
Personal Weather Stations






























Interactive Weather Map
Tropical Storm Tracking
New forecast layout! Learn more

10-Day Weather Forecast

Advertisements
Track Severe Weather on mobile